TimePST,TemperatureF,Dew PointF,Humidity,Sea Level PressureIn,VisibilityMPH,Wind Direction,Wind SpeedMPH,Gust SpeedMPH,PrecipitationIn,Events,Conditions,WindDirDegrees,DateUTC
12:56 AM,39.0,37.9,96,30.25,8.0,Calm,Calm,-,N/A,,Partly Cloudy,0,2012-11-22 08:56:00
1:56 AM,39.0,37.9,96,30.25,8.0,Calm,Calm,-,N/A,,Clear,0,2012-11-22 09:56:00
2:56 AM,37.9,36.0,93,30.26,10.0,Calm,Calm,-,N/A,,Clear,0,2012-11-22 10:56:00
3:56 AM,37.0,35.1,93,30.25,10.0,Calm,Calm,-,N/A,,Clear,0,2012-11-22 11:56:00
4:56 AM,37.0,36.0,96,30.25,10.0,Calm,Calm,-,N/A,,Clear,0,2012-11-22 12:56:00
5:56 AM,37.0,35.1,93,30.26,10.0,Calm,Calm,-,N/A,,Clear,0,2012-11-22 13:56:00
6:13 AM,35.6,33.8,93,30.26,2.5,Calm,Calm,-,0.01,,Partly Cloudy,0,2012-11-22 14:13:00
6:17 AM,35.6,33.8,93,30.26,1.0,Calm,Calm,-,0.01,,Mist,0,2012-11-22 14:17:00
6:28 AM,35.6,33.8,93,30.26,2.0,Calm,Calm,-,0.01,,Partly Cloudy,0,2012-11-22 14:28:00
6:36 AM,35.6,33.8,93,30.26,10.0,Calm,Calm,-,0.01,,Partly Cloudy,0,2012-11-22 14:36:00
6:56 AM,35.1,34.0,96,30.27,7.0,Calm,Calm,-,0.01,,Mostly Cloudy,0,2012-11-22 14:56:00
7:31 AM,35.6,35.6,100,30.28,10.0,Calm,Calm,-,N/A,,Scattered Clouds,0,2012-11-22 15:31:00
7:56 AM,37.9,36.0,93,30.30,10.0,Calm,Calm,-,N/A,,Clear,0,2012-11-22 15:56:00
8:56 AM,41.0,39.0,93,30.29,10.0,Calm,Calm,-,N/A,,Clear,0,2012-11-22 16:56:00
9:56 AM,46.0,41.0,83,30.29,10.0,Calm,Calm,-,N/A,,Clear,0,2012-11-22 17:56:00
10:56 AM,50.0,39.9,68,30.27,10.0,Calm,Calm,-,N/A,,Clear,0,2012-11-22 18:56:00
11:56 AM,54.0,39.9,59,30.25,10.0,Calm,Calm,-,N/A,,Clear,0,2012-11-22 19:56:00
12:56 PM,57.0,39.0,51,30.23,10.0,Calm,Calm,-,N/A,,Clear,0,2012-11-22 20:56:00
1:56 PM,61.0,43.0,52,30.21,10.0,Variable,3.5,-,N/A,,Clear,0,2012-11-22 21:56:00
2:56 PM,62.1,45.0,53,30.19,10.0,Calm,Calm,-,N/A,,Clear,0,2012-11-22 22:56:00
3:56 PM,57.9,46.9,67,30.20,10.0,West,4.6,-,N/A,,Clear,280,2012-11-22 23:56:00
4:56 PM,53.1,46.0,77,30.20,10.0,Calm,Calm,-,N/A,,Clear,0,2012-11-23 00:56:00
5:56 PM,51.1,46.0,83,30.21,10.0,Calm,Calm,-,N/A,,Clear,0,2012-11-23 01:56:00
6:56 PM,48.9,45.0,86,30.22,10.0,Calm,Calm,-,N/A,,Clear,0,2012-11-23 02:56:00
7:56 PM,46.0,43.0,89,30.23,10.0,Calm,Calm,-,N/A,,Clear,0,2012-11-23 03:56:00
8:56 PM,45.0,43.0,93,30.24,10.0,Calm,Calm,-,N/A,,Clear,0,2012-11-23 04:56:00
9:56 PM,44.1,42.1,93,30.25,10.0,Calm,Calm,-,N/A,,Clear,0,2012-11-23 05:56:00
10:56 PM,41.0,39.9,96,30.26,10.0,Calm,Calm,-,N/A,,Clear,0,2012-11-23 06:56:00
11:56 PM,41.0,39.0,93,30.27,10.0,Calm,Calm,-,N/A,,Clear,0,2012-11-23 07:56:00